sensor_id;sensor_type;location;lat;lon;timestamp;P1;durP1;ratioP1;P2;durP2;ratioP2
20375;SDS011;10347;51.828;6.466;2023-09-07T00:01:29;2.38;;;2.17;;
20375;SDS011;10347;51.828;6.466;2023-09-07T00:03:55;2.38;;;2.17;;
20375;SDS011;10347;51.828;6.466;2023-09-07T00:06:20;2.50;;;2.30;;
20375;SDS011;10347;51.828;6.466;2023-09-07T00:08:46;2.88;;;2.60;;
20375;SDS011;10347;51.828;6.466;2023-09-07T00:11:11;3.45;;;2.97;;
20375;SDS011;10347;51.828;6.466;2023-09-07T00:13:37;4.20;;;2.42;;
20375;SDS011;10347;51.828;6.466;2023-09-07T00:16:03;2.50;;;2.33;;
20375;SDS011;10347;51.828;6.466;2023-09-07T00:18:30;2.97;;;2.67;;
20375;SDS011;10347;51.828;6.466;2023-09-07T00:20:56;3.10;;;2.78;;
20375;SDS011;10347;51.828;6.466;2023-09-07T00:23:22;4.68;;;2.95;;
20375;SDS011;10347;51.828;6.466;2023-09-07T00:25:48;4.32;;;2.70;;
20375;SDS011;10347;51.828;6.466;2023-09-07T00:28:13;3.53;;;2.38;;
20375;SDS011;10347;51.828;6.466;2023-09-07T00:30:39;2.60;;;2.42;;
20375;SDS011;10347;51.828;6.466;2023-09-07T00:33:05;2.50;;;2.40;;
20375;SDS011;10347;51.828;6.466;2023-09-07T00:35:32;2.65;;;2.50;;
20375;SDS011;10347;51.828;6.466;2023-09-07T00:37:57;2.60;;;2.40;;
20375;SDS011;10347;51.828;6.466;2023-09-07T00:40:23;3.13;;;2.83;;
20375;SDS011;10347;51.828;6.466;2023-09-07T00:42:50;2.70;;;2.50;;
20375;SDS011;10347;51.828;6.466;2023-09-07T00:45:15;4.55;;;2.97;;
20375;SDS011;10347;51.828;6.466;2023-09-07T00:47:41;2.90;;;2.70;;
20375;SDS011;10347;51.828;6.466;2023-09-07T00:50:07;2.80;;;2.60;;
20375;SDS011;10347;51.828;6.466;2023-09-07T00:52:33;2.80;;;2.60;;
20375;SDS011;10347;51.828;6.466;2023-09-07T00:55:01;3.00;;;2.63;;
20375;SDS011;10347;51.828;6.466;2023-09-07T00:57:29;4.13;;;3.10;;
20375;SDS011;10347;51.828;6.466;2023-09-07T00:59:54;2.97;;;2.72;;
20375;SDS011;10347;51.828;6.466;2023-09-07T01:02:20;4.13;;;2.90;;
20375;SDS011;10347;51.828;6.466;2023-09-07T01:04:45;3.28;;;2.65;;
20375;SDS011;10347;51.828;6.466;2023-09-07T01:07:16;3.25;;;2.90;;
20375;SDS011;10347;51.828;6.466;2023-09-07T01:09:44;3.38;;;2.90;;
20375;SDS011;10347;51.828;6.466;2023-09-07T01:12:14;2.63;;;2.42;;
20375;SDS011;10347;51.828;6.466;2023-09-07T01:14:40;4.32;;;2.78;;
20375;SDS011;10347;51.828;6.466;2023-09-07T01:17:06;3.72;;;2.90;;
20375;SDS011;10347;51.828;6.466;2023-09-07T01:19:33;3.00;;;2.45;;
20375;SDS011;10347;51.828;6.466;2023-09-07T01:21:59;3.45;;;3.15;;
20375;SDS011;10347;51.828;6.466;2023-09-07T01:24:25;3.83;;;2.72;;
20375;SDS011;10347;51.828;6.466;2023-09-07T01:26:53;3.75;;;2.83;;
20375;SDS011;10347;51.828;6.466;2023-09-07T01:29:19;2.88;;;2.67;;
20375;SDS011;10347;51.828;6.466;2023-09-07T01:31:45;3.03;;;2.72;;
20375;SDS011;10347;51.828;6.466;2023-09-07T01:34:10;3.17;;;2.90;;
20375;SDS011;10347;51.828;6.466;2023-09-07T01:36:36;3.50;;;2.60;;
20375;SDS011;10347;51.828;6.466;2023-09-07T01:39:03;2.55;;;2.35;;
20375;SDS011;10347;51.828;6.466;2023-09-07T01:41:30;3.10;;;2.80;;
20375;SDS011;10347;51.828;6.466;2023-09-07T01:43:56;9.43;;;2.88;;
20375;SDS011;10347;51.828;6.466;2023-09-07T01:46:22;3.20;;;2.90;;
20375;SDS011;10347;51.828;6.466;2023-09-07T01:48:47;3.00;;;2.80;;
20375;SDS011;10347;51.828;6.466;2023-09-07T01:51:13;3.13;;;2.83;;
20375;SDS011;10347;51.828;6.466;2023-09-07T01:53:38;3.97;;;3.00;;
20375;SDS011;10347;51.828;6.466;2023-09-07T01:56:04;2.83;;;2.67;;
20375;SDS011;10347;51.828;6.466;2023-09-07T01:58:29;3.30;;;3.00;;
20375;SDS011;10347;51.828;6.466;2023-09-07T02:00:58;5.32;;;3.40;;
20375;SDS011;10347;51.828;6.466;2023-09-07T02:03:23;3.35;;;3.05;;
20375;SDS011;10347;51.828;6.466;2023-09-07T02:05:50;3.28;;;2.97;;
20375;SDS011;10347;51.828;6.466;2023-09-07T02:08:15;3.33;;;3.03;;
20375;SDS011;10347;51.828;6.466;2023-09-07T02:10:41;3.08;;;2.88;;
20375;SDS011;10347;51.828;6.466;2023-09-07T02:13:07;3.33;;;3.10;;
20375;SDS011;10347;51.828;6.466;2023-09-07T02:15:32;3.20;;;2.90;;
20375;SDS011;10347;51.828;6.466;2023-09-07T02:17:58;4.25;;;3.45;;
20375;SDS011;10347;51.828;6.466;2023-09-07T02:20:23;3.70;;;3.40;;
20375;SDS011;10347;51.828;6.466;2023-09-07T02:22:49;3.78;;;3.40;;
20375;SDS011;10347;51.828;6.466;2023-09-07T02:25:15;4.10;;;3.70;;
20375;SDS011;10347;51.828;6.466;2023-09-07T02:27:40;3.65;;;3.35;;
20375;SDS011;10347;51.828;6.466;2023-09-07T02:30:06;5.03;;;3.20;;
20375;SDS011;10347;51.828;6.466;2023-09-07T02:32:32;3.38;;;3.08;;
20375;SDS011;10347;51.828;6.466;2023-09-07T02:34:58;3.60;;;3.30;;
20375;SDS011;10347;51.828;6.466;2023-09-07T02:37:23;3.40;;;3.08;;
20375;SDS011;10347;51.828;6.466;2023-09-07T02:39:49;3.30;;;3.10;;
20375;SDS011;10347;51.828;6.466;2023-09-07T02:42:14;3.97;;;3.58;;
20375;SDS011;10347;51.828;6.466;2023-09-07T02:44:40;4.43;;;3.90;;
20375;SDS011;10347;51.828;6.466;2023-09-07T02:47:05;3.42;;;3.13;;
20375;SDS011;10347;51.828;6.466;2023-09-07T02:49:31;3.30;;;3.00;;
20375;SDS011;10347;51.828;6.466;2023-09-07T02:51:56;3.72;;;3.40;;
20375;SDS011;10347;51.828;6.466;2023-09-07T02:54:22;5.07;;;3.60;;
20375;SDS011;10347;51.828;6.466;2023-09-07T02:56:48;3.80;;;3.50;;
20375;SDS011;10347;51.828;6.466;2023-09-07T02:59:13;3.88;;;3.58;;
20375;SDS011;10347;51.828;6.466;2023-09-07T03:01:39;3.60;;;3.30;;
20375;SDS011;10347;51.828;6.466;2023-09-07T03:04:05;3.72;;;3.33;;
20375;SDS011;10347;51.828;6.466;2023-09-07T03:06:31;3.67;;;3.47;;
20375;SDS011;10347;51.828;6.466;2023-09-07T03:08:56;3.60;;;3.38;;
20375;SDS011;10347;51.828;6.466;2023-09-07T03:11:22;3.75;;;3.38;;
20375;SDS011;10347;51.828;6.466;2023-09-07T03:13:48;3.92;;;3.60;;
20375;SDS011;10347;51.828;6.466;2023-09-07T03:16:13;4.05;;;3.65;;
20375;SDS011;10347;51.828;6.466;2023-09-07T03:18:39;3.88;;;3.50;;
20375;SDS011;10347;51.828;6.466;2023-09-07T03:21:05;3.53;;;3.22;;
20375;SDS011;10347;51.828;6.466;2023-09-07T03:23:31;3.85;;;3.50;;
20375;SDS011;10347;51.828;6.466;2023-09-07T03:25:58;4.45;;;3.15;;
20375;SDS011;10347;51.828;6.466;2023-09-07T03:28:24;3.83;;;3.53;;
20375;SDS011;10347;51.828;6.466;2023-09-07T03:30:55;4.05;;;3.75;;
20375;SDS011;10347;51.828;6.466;2023-09-07T03:33:22;3.83;;;3.50;;
20375;SDS011;10347;51.828;6.466;2023-09-07T03:35:48;4.07;;;3.67;;
20375;SDS011;10347;51.828;6.466;2023-09-07T03:38:13;4.15;;;3.85;;
20375;SDS011;10347;51.828;6.466;2023-09-07T03:40:39;4.18;;;3.00;;
20375;SDS011;10347;51.828;6.466;2023-09-07T03:43:05;4.90;;;3.95;;
20375;SDS011;10347;51.828;6.466;2023-09-07T03:45:30;4.07;;;3.30;;
20375;SDS011;10347;51.828;6.466;2023-09-07T03:47:56;3.78;;;3.47;;
20375;SDS011;10347;51.828;6.466;2023-09-07T03:50:21;4.28;;;3.88;;
20375;SDS011;10347;51.828;6.466;2023-09-07T03:52:47;5.00;;;3.45;;
20375;SDS011;10347;51.828;6.466;2023-09-07T03:55:13;3.72;;;3.33;;
20375;SDS011;10347;51.828;6.466;2023-09-07T03:57:38;3.65;;;3.35;;
20375;SDS011;10347;51.828;6.466;2023-09-07T04:00:06;3.78;;;3.20;;
20375;SDS011;10347;51.828;6.466;2023-09-07T04:02:33;3.58;;;3.13;;
20375;SDS011;10347;51.828;6.466;2023-09-07T04:04:59;4.63;;;3.63;;
20375;SDS011;10347;51.828;6.466;2023-09-07T04:07:26;3.95;;;3.50;;
20375;SDS011;10347;51.828;6.466;2023-09-07T04:09:52;4.00;;;3.63;;
20375;SDS011;10347;51.828;6.466;2023-09-07T04:12:17;3.88;;;3.53;;
20375;SDS011;10347;51.828;6.466;2023-09-07T04:14:46;3.70;;;3.40;;
20375;SDS011;10347;51.828;6.466;2023-09-07T04:17:12;3.80;;;3.47;;
20375;SDS011;10347;51.828;6.466;2023-09-07T04:19:37;3.40;;;3.10;;
20375;SDS011;10347;51.828;6.466;2023-09-07T04:22:03;3.13;;;2.92;;
20375;SDS011;10347;51.828;6.466;2023-09-07T04:24:29;3.95;;;3.55;;
20375;SDS011;10347;51.828;6.466;2023-09-07T04:26:58;3.65;;;3.35;;
20375;SDS011;10347;51.828;6.466;2023-09-07T04:29:25;4.13;;;3.72;;
20375;SDS011;10347;51.828;6.466;2023-09-07T04:31:51;4.40;;;4.00;;
20375;SDS011;10347;51.828;6.466;2023-09-07T04:34:17;4.07;;;3.60;;
20375;SDS011;10347;51.828;6.466;2023-09-07T04:36:42;3.70;;;3.40;;
20375;SDS011;10347;51.828;6.466;2023-09-07T04:39:08;3.97;;;3.63;;
20375;SDS011;10347;51.828;6.466;2023-09-07T04:41:33;3.92;;;3.63;;
20375;SDS011;10347;51.828;6.466;2023-09-07T04:43:59;4.40;;;4.00;;
20375;SDS011;10347;51.828;6.466;2023-09-07T04:46:25;5.65;;;3.80;;
20375;SDS011;10347;51.828;6.466;2023-09-07T04:48:50;5.75;;;3.83;;
20375;SDS011;10347;51.828;6.466;2023-09-07T04:51:16;3.50;;;3.20;;
20375;SDS011;10347;51.828;6.466;2023-09-07T04:53:41;3.45;;;3.15;;
20375;SDS011;10347;51.828;6.466;2023-09-07T04:56:07;3.35;;;3.05;;
20375;SDS011;10347;51.828;6.466;2023-09-07T04:58:33;3.75;;;3.50;;
20375;SDS011;10347;51.828;6.466;2023-09-07T05:01:06;6.78;;;3.90;;
20375;SDS011;10347;51.828;6.466;2023-09-07T05:03:36;4.63;;;3.65;;
20375;SDS011;10347;51.828;6.466;2023-09-07T05:06:02;3.90;;;3.58;;
20375;SDS011;10347;51.828;6.466;2023-09-07T05:08:28;5.82;;;4.18;;
20375;SDS011;10347;51.828;6.466;2023-09-07T05:11:05;4.70;;;4.18;;
20375;SDS011;10347;51.828;6.466;2023-09-07T05:13:30;5.03;;;4.20;;
20375;SDS011;10347;51.828;6.466;2023-09-07T05:15:58;4.15;;;3.70;;
20375;SDS011;10347;51.828;6.466;2023-09-07T05:18:24;8.70;;;4.00;;
20375;SDS011;10347;51.828;6.466;2023-09-07T05:20:49;5.78;;;4.43;;
20375;SDS011;10347;51.828;6.466;2023-09-07T05:23:19;4.75;;;4.22;;
20375;SDS011;10347;51.828;6.466;2023-09-07T05:25:45;4.63;;;4.18;;
20375;SDS011;10347;51.828;6.466;2023-09-07T05:28:12;4.75;;;4.30;;
20375;SDS011;10347;51.828;6.466;2023-09-07T05:30:39;4.25;;;3.85;;
20375;SDS011;10347;51.828;6.466;2023-09-07T05:33:05;4.10;;;3.70;;
20375;SDS011;10347;51.828;6.466;2023-09-07T05:35:31;6.63;;;3.95;;
20375;SDS011;10347;51.828;6.466;2023-09-07T05:37:57;4.60;;;3.90;;
20375;SDS011;10347;51.828;6.466;2023-09-07T05:40:23;5.15;;;4.32;;
20375;SDS011;10347;51.828;6.466;2023-09-07T05:42:49;4.55;;;4.05;;
20375;SDS011;10347;51.828;6.466;2023-09-07T05:45:14;4.82;;;4.32;;
20375;SDS011;10347;51.828;6.466;2023-09-07T05:47:40;5.38;;;4.10;;
20375;SDS011;10347;51.828;6.466;2023-09-07T05:50:05;4.38;;;3.97;;
20375;SDS011;10347;51.828;6.466;2023-09-07T05:52:31;5.22;;;3.85;;
20375;SDS011;10347;51.828;6.466;2023-09-07T05:54:57;6.28;;;4.78;;
20375;SDS011;10347;51.828;6.466;2023-09-07T05:57:22;4.47;;;4.07;;
20375;SDS011;10347;51.828;6.466;2023-09-07T05:59:48;5.75;;;4.35;;
20375;SDS011;10347;51.828;6.466;2023-09-07T06:02:14;5.38;;;3.70;;
20375;SDS011;10347;51.828;6.466;2023-09-07T06:04:39;4.10;;;3.65;;
20375;SDS011;10347;51.828;6.466;2023-09-07T06:07:05;5.00;;;3.90;;
20375;SDS011;10347;51.828;6.466;2023-09-07T06:09:30;4.60;;;4.20;;
20375;SDS011;10347;51.828;6.466;2023-09-07T06:11:56;7.80;;;4.75;;
20375;SDS011;10347;51.828;6.466;2023-09-07T06:14:21;6.53;;;4.95;;
20375;SDS011;10347;51.828;6.466;2023-09-07T06:16:47;6.85;;;4.70;;
20375;SDS011;10347;51.828;6.466;2023-09-07T06:19:13;8.75;;;5.35;;
20375;SDS011;10347;51.828;6.466;2023-09-07T06:21:38;5.80;;;4.70;;
20375;SDS011;10347;51.828;6.466;2023-09-07T06:24:04;6.65;;;4.43;;
20375;SDS011;10347;51.828;6.466;2023-09-07T06:26:31;7.32;;;4.85;;
20375;SDS011;10347;51.828;6.466;2023-09-07T06:28:57;6.13;;;4.88;;
20375;SDS011;10347;51.828;6.466;2023-09-07T06:31:22;4.85;;;4.38;;
20375;SDS011;10347;51.828;6.466;2023-09-07T06:33:48;5.70;;;4.68;;
20375;SDS011;10347;51.828;6.466;2023-09-07T06:36:13;6.65;;;4.57;;
20375;SDS011;10347;51.828;6.466;2023-09-07T06:38:39;6.63;;;5.53;;
20375;SDS011;10347;51.828;6.466;2023-09-07T06:41:04;6.20;;;4.82;;
20375;SDS011;10347;51.828;6.466;2023-09-07T06:43:32;6.78;;;5.28;;
20375;SDS011;10347;51.828;6.466;2023-09-07T06:46:16;6.28;;;5.00;;
20375;SDS011;10347;51.828;6.466;2023-09-07T06:48:42;5.22;;;4.03;;
20375;SDS011;10347;51.828;6.466;2023-09-07T06:51:07;4.57;;;4.20;;
20375;SDS011;10347;51.828;6.466;2023-09-07T06:53:34;5.95;;;4.20;;
20375;SDS011;10347;51.828;6.466;2023-09-07T06:56:00;5.03;;;4.38;;
20375;SDS011;10347;51.828;6.466;2023-09-07T06:58:27;5.07;;;4.60;;
20375;SDS011;10347;51.828;6.466;2023-09-07T07:00:56;5.88;;;4.88;;
20375;SDS011;10347;51.828;6.466;2023-09-07T07:03:24;5.72;;;5.07;;
20375;SDS011;10347;51.828;6.466;2023-09-07T07:05:51;7.70;;;5.15;;
20375;SDS011;10347;51.828;6.466;2023-09-07T07:08:16;10.57;;;5.40;;
20375;SDS011;10347;51.828;6.466;2023-09-07T07:10:42;6.53;;;4.38;;
20375;SDS011;10347;51.828;6.466;2023-09-07T07:13:07;4.03;;;3.72;;
20375;SDS011;10347;51.828;6.466;2023-09-07T07:15:33;4.80;;;4.40;;
20375;SDS011;10347;51.828;6.466;2023-09-07T07:18:00;6.03;;;3.65;;
20375;SDS011;10347;51.828;6.466;2023-09-07T07:20:26;5.03;;;4.05;;
20375;SDS011;10347;51.828;6.466;2023-09-07T07:22:52;4.90;;;4.50;;
20375;SDS011;10347;51.828;6.466;2023-09-07T07:25:17;5.47;;;4.25;;
20375;SDS011;10347;51.828;6.466;2023-09-07T07:27:43;5.22;;;3.88;;
20375;SDS011;10347;51.828;6.466;2023-09-07T07:30:10;5.10;;;3.80;;
20375;SDS011;10347;51.828;6.466;2023-09-07T07:32:35;4.82;;;4.35;;
20375;SDS011;10347;51.828;6.466;2023-09-07T07:35:01;5.13;;;4.47;;
20375;SDS011;10347;51.828;6.466;2023-09-07T07:37:28;6.68;;;4.75;;
20375;SDS011;10347;51.828;6.466;2023-09-07T07:39:53;7.93;;;4.20;;
20375;SDS011;10347;51.828;6.466;2023-09-07T07:42:19;4.72;;;3.97;;
20375;SDS011;10347;51.828;6.466;2023-09-07T07:44:45;4.30;;;3.90;;
20375;SDS011;10347;51.828;6.466;2023-09-07T07:47:11;5.15;;;4.65;;
20375;SDS011;10347;51.828;6.466;2023-09-07T07:49:36;5.20;;;4.22;;
20375;SDS011;10347;51.828;6.466;2023-09-07T07:52:02;4.70;;;3.97;;
20375;SDS011;10347;51.828;6.466;2023-09-07T07:54:28;5.35;;;3.53;;
20375;SDS011;10347;51.828;6.466;2023-09-07T07:56:54;4.43;;;4.03;;
20375;SDS011;10347;51.828;6.466;2023-09-07T07:59:19;7.40;;;3.80;;
20375;SDS011;10347;51.828;6.466;2023-09-07T08:01:45;4.40;;;4.00;;
20375;SDS011;10347;51.828;6.466;2023-09-07T08:04:10;6.00;;;3.33;;
20375;SDS011;10347;51.828;6.466;2023-09-07T08:06:36;3.70;;;3.40;;
20375;SDS011;10347;51.828;6.466;2023-09-07T08:09:02;5.43;;;3.13;;
20375;SDS011;10347;51.828;6.466;2023-09-07T08:11:28;5.93;;;3.20;;
20375;SDS011;10347;51.828;6.466;2023-09-07T08:13:53;5.22;;;3.20;;
20375;SDS011;10347;51.828;6.466;2023-09-07T08:16:19;4.03;;;3.40;;
20375;SDS011;10347;51.828;6.466;2023-09-07T08:18:44;5.38;;;3.20;;
20375;SDS011;10347;51.828;6.466;2023-09-07T08:21:10;4.97;;;3.60;;
20375;SDS011;10347;51.828;6.466;2023-09-07T08:23:37;3.33;;;3.10;;
20375;SDS011;10347;51.828;6.466;2023-09-07T08:26:02;4.82;;;3.28;;
20375;SDS011;10347;51.828;6.466;2023-09-07T08:28:28;3.83;;;3.20;;
20375;SDS011;10347;51.828;6.466;2023-09-07T08:30:54;3.25;;;2.95;;
20375;SDS011;10347;51.828;6.466;2023-09-07T08:33:23;3.33;;;3.03;;
20375;SDS011;10347;51.828;6.466;2023-09-07T08:35:53;3.47;;;3.15;;
20375;SDS011;10347;51.828;6.466;2023-09-07T08:38:22;3.10;;;2.90;;
20375;SDS011;10347;51.828;6.466;2023-09-07T08:40:51;5.70;;;3.00;;
20375;SDS011;10347;51.828;6.466;2023-09-07T08:43:19;3.45;;;3.08;;
20375;SDS011;10347;51.828;6.466;2023-09-07T08:45:48;3.72;;;3.35;;
20375;SDS011;10347;51.828;6.466;2023-09-07T08:48:23;3.88;;;3.30;;
20375;SDS011;10347;51.828;6.466;2023-09-07T08:50:50;5.07;;;3.08;;
20375;SDS011;10347;51.828;6.466;2023-09-07T08:53:17;4.47;;;3.08;;
20375;SDS011;10347;51.828;6.466;2023-09-07T08:55:45;3.13;;;2.80;;
20375;SDS011;10347;51.828;6.466;2023-09-07T08:58:10;3.67;;;3.38;;
20375;SDS011;10347;51.828;6.466;2023-09-07T09:00:36;4.13;;;2.92;;
20375;SDS011;10347;51.828;6.466;2023-09-07T09:03:02;4.70;;;3.03;;
20375;SDS011;10347;51.828;6.466;2023-09-07T09:05:29;4.10;;;3.10;;
20375;SDS011;10347;51.828;6.466;2023-09-07T09:08:04;3.20;;;2.70;;
20375;SDS011;10347;51.828;6.466;2023-09-07T09:10:30;3.15;;;2.55;;
20375;SDS011;10347;51.828;6.466;2023-09-07T09:12:56;3.30;;;2.72;;
20375;SDS011;10347;51.828;6.466;2023-09-07T09:15:24;4.60;;;3.00;;
20375;SDS011;10347;51.828;6.466;2023-09-07T09:17:50;4.68;;;2.80;;
20375;SDS011;10347;51.828;6.466;2023-09-07T09:20:34;4.13;;;2.92;;
20375;SDS011;10347;51.828;6.466;2023-09-07T09:23:03;3.75;;;2.67;;
20375;SDS011;10347;51.828;6.466;2023-09-07T09:25:30;5.57;;;2.97;;
20375;SDS011;10347;51.828;6.466;2023-09-07T09:27:56;4.25;;;3.10;;
20375;SDS011;10347;51.828;6.466;2023-09-07T09:30:22;5.60;;;2.70;;
20375;SDS011;10347;51.828;6.466;2023-09-07T09:32:48;2.78;;;2.58;;
20375;SDS011;10347;51.828;6.466;2023-09-07T09:35:16;5.60;;;2.97;;
20375;SDS011;10347;51.828;6.466;2023-09-07T09:37:43;3.05;;;2.72;;
20375;SDS011;10347;51.828;6.466;2023-09-07T09:40:09;2.60;;;2.40;;
20375;SDS011;10347;51.828;6.466;2023-09-07T09:42:36;2.97;;;2.78;;
20375;SDS011;10347;51.828;6.466;2023-09-07T09:45:03;8.70;;;3.40;;
20375;SDS011;10347;51.828;6.466;2023-09-07T09:47:31;3.03;;;2.55;;
20375;SDS011;10347;51.828;6.466;2023-09-07T09:49:58;2.55;;;2.40;;
20375;SDS011;10347;51.828;6.466;2023-09-07T09:52:26;6.55;;;2.90;;
20375;SDS011;10347;51.828;6.466;2023-09-07T09:54:53;3.13;;;2.70;;
20375;SDS011;10347;51.828;6.466;2023-09-07T09:57:20;4.75;;;3.00;;
20375;SDS011;10347;51.828;6.466;2023-09-07T09:59:47;6.07;;;3.00;;
20375;SDS011;10347;51.828;6.466;2023-09-07T10:02:13;3.63;;;2.80;;
20375;SDS011;10347;51.828;6.466;2023-09-07T10:04:41;3.17;;;2.88;;
20375;SDS011;10347;51.828;6.466;2023-09-07T10:07:06;5.00;;;2.85;;
20375;SDS011;10347;51.828;6.466;2023-09-07T10:09:32;2.85;;;2.65;;
20375;SDS011;10347;51.828;6.466;2023-09-07T10:11:59;2.67;;;2.50;;
20375;SDS011;10347;51.828;6.466;2023-09-07T10:14:26;7.05;;;2.70;;
20375;SDS011;10347;51.828;6.466;2023-09-07T10:17:02;6.88;;;2.83;;
20375;SDS011;10347;51.828;6.466;2023-09-07T10:19:29;3.20;;;2.90;;
20375;SDS011;10347;51.828;6.466;2023-09-07T10:21:55;5.13;;;2.72;;
20375;SDS011;10347;51.828;6.466;2023-09-07T10:24:24;3.08;;;2.80;;
20375;SDS011;10347;51.828;6.466;2023-09-07T10:27:00;4.55;;;3.03;;
20375;SDS011;10347;51.828;6.466;2023-09-07T10:29:27;4.07;;;2.90;;
20375;SDS011;10347;51.828;6.466;2023-09-07T10:31:53;3.15;;;2.92;;
20375;SDS011;10347;51.828;6.466;2023-09-07T10:34:19;2.88;;;2.67;;
20375;SDS011;10347;51.828;6.466;2023-09-07T10:36:46;4.40;;;3.17;;
20375;SDS011;10347;51.828;6.466;2023-09-07T10:39:11;5.00;;;3.35;;
20375;SDS011;10347;51.828;6.466;2023-09-07T10:41:44;3.40;;;3.10;;
20375;SDS011;10347;51.828;6.466;2023-09-07T10:44:10;3.22;;;2.63;;
20375;SDS011;10347;51.828;6.466;2023-09-07T10:46:37;3.08;;;2.80;;
20375;SDS011;10347;51.828;6.466;2023-09-07T10:49:03;3.25;;;2.75;;
20375;SDS011;10347;51.828;6.466;2023-09-07T10:51:31;3.05;;;2.78;;
20375;SDS011;10347;51.828;6.466;2023-09-07T10:53:57;3.17;;;2.83;;
20375;SDS011;10347;51.828;6.466;2023-09-07T10:56:24;7.25;;;3.30;;
20375;SDS011;10347;51.828;6.466;2023-09-07T10:58:53;3.83;;;2.97;;
20375;SDS011;10347;51.828;6.466;2023-09-07T11:01:19;2.88;;;2.63;;
20375;SDS011;10347;51.828;6.466;2023-09-07T11:03:45;4.35;;;3.13;;
20375;SDS011;10347;51.828;6.466;2023-09-07T11:06:18;6.75;;;2.83;;
20375;SDS011;10347;51.828;6.466;2023-09-07T11:08:48;5.22;;;3.13;;
20375;SDS011;10347;51.828;6.466;2023-09-07T11:11:14;3.55;;;3.05;;
20375;SDS011;10347;51.828;6.466;2023-09-07T11:13:39;5.00;;;3.20;;
20375;SDS011;10347;51.828;6.466;2023-09-07T11:16:07;4.55;;;3.05;;
20375;SDS011;10347;51.828;6.466;2023-09-07T11:18:34;2.50;;;2.30;;
20375;SDS011;10347;51.828;6.466;2023-09-07T11:21:02;4.20;;;2.83;;
20375;SDS011;10347;51.828;6.466;2023-09-07T11:23:29;3.80;;;3.10;;
20375;SDS011;10347;51.828;6.466;2023-09-07T11:26:03;3.78;;;3.10;;
20375;SDS011;10347;51.828;6.466;2023-09-07T11:28:30;7.10;;;3.53;;
20375;SDS011;10347;51.828;6.466;2023-09-07T11:30:56;4.25;;;2.97;;
20375;SDS011;10347;51.828;6.466;2023-09-07T11:33:23;3.42;;;3.00;;
20375;SDS011;10347;51.828;6.466;2023-09-07T11:35:49;3.05;;;2.80;;
20375;SDS011;10347;51.828;6.466;2023-09-07T11:38:15;3.88;;;3.15;;
20375;SDS011;10347;51.828;6.466;2023-09-07T11:40:42;5.05;;;3.25;;
20375;SDS011;10347;51.828;6.466;2023-09-07T11:43:12;4.63;;;3.08;;
20375;SDS011;10347;51.828;6.466;2023-09-07T11:45:45;4.63;;;3.10;;
20375;SDS011;10347;51.828;6.466;2023-09-07T11:48:11;3.20;;;2.90;;
20375;SDS011;10347;51.828;6.466;2023-09-07T11:50:37;3.35;;;3.05;;
20375;SDS011;10347;51.828;6.466;2023-09-07T11:53:07;4.68;;;3.00;;
20375;SDS011;10347;51.828;6.466;2023-09-07T11:55:33;3.63;;;3.33;;
20375;SDS011;10347;51.828;6.466;2023-09-07T11:57:59;3.22;;;2.92;;
20375;SDS011;10347;51.828;6.466;2023-09-07T12:00:25;5.30;;;3.20;;
20375;SDS011;10347;51.828;6.466;2023-09-07T12:02:51;3.13;;;2.85;;
20375;SDS011;10347;51.828;6.466;2023-09-07T12:05:16;4.68;;;3.70;;
20375;SDS011;10347;51.828;6.466;2023-09-07T12:07:44;5.22;;;3.60;;
20375;SDS011;10347;51.828;6.466;2023-09-07T12:10:09;3.60;;;3.30;;
20375;SDS011;10347;51.828;6.466;2023-09-07T12:12:38;3.38;;;3.08;;
20375;SDS011;10347;51.828;6.466;2023-09-07T12:15:07;6.65;;;3.45;;
20375;SDS011;10347;51.828;6.466;2023-09-07T12:17:33;4.70;;;3.38;;
20375;SDS011;10347;51.828;6.466;2023-09-07T12:19:59;4.68;;;3.08;;
20375;SDS011;10347;51.828;6.466;2023-09-07T12:22:25;5.13;;;3.47;;
20375;SDS011;10347;51.828;6.466;2023-09-07T12:24:51;7.05;;;3.20;;
20375;SDS011;10347;51.828;6.466;2023-09-07T12:27:17;4.68;;;3.55;;
20375;SDS011;10347;51.828;6.466;2023-09-07T12:29:43;4.78;;;3.13;;
20375;SDS011;10347;51.828;6.466;2023-09-07T12:32:09;4.10;;;3.35;;
20375;SDS011;10347;51.828;6.466;2023-09-07T12:34:35;5.18;;;2.90;;
20375;SDS011;10347;51.828;6.466;2023-09-07T12:37:01;3.20;;;2.60;;
20375;SDS011;10347;51.828;6.466;2023-09-07T12:39:28;6.10;;;3.50;;
20375;SDS011;10347;51.828;6.466;2023-09-07T12:41:54;6.90;;;3.70;;
20375;SDS011;10347;51.828;6.466;2023-09-07T12:44:20;3.90;;;3.50;;
20375;SDS011;10347;51.828;6.466;2023-09-07T12:46:46;4.88;;;3.10;;
20375;SDS011;10347;51.828;6.466;2023-09-07T12:49:11;4.45;;;3.30;;
20375;SDS011;10347;51.828;6.466;2023-09-07T12:51:37;4.50;;;3.15;;
20375;SDS011;10347;51.828;6.466;2023-09-07T12:54:02;4.53;;;3.25;;
20375;SDS011;10347;51.828;6.466;2023-09-07T12:56:28;3.47;;;3.17;;
20375;SDS011;10347;51.828;6.466;2023-09-07T12:58:54;4.05;;;3.20;;
20375;SDS011;10347;51.828;6.466;2023-09-07T13:01:22;4.10;;;3.25;;
20375;SDS011;10347;51.828;6.466;2023-09-07T13:03:47;4.00;;;3.28;;
20375;SDS011;10347;51.828;6.466;2023-09-07T13:06:13;5.43;;;3.40;;
20375;SDS011;10347;51.828;6.466;2023-09-07T13:08:38;3.30;;;3.03;;
20375;SDS011;10347;51.828;6.466;2023-09-07T13:11:04;3.78;;;3.10;;
20375;SDS011;10347;51.828;6.466;2023-09-07T13:13:30;4.13;;;2.92;;
20375;SDS011;10347;51.828;6.466;2023-09-07T13:15:56;4.25;;;3.28;;
20375;SDS011;10347;51.828;6.466;2023-09-07T13:18:21;4.47;;;3.28;;
20375;SDS011;10347;51.828;6.466;2023-09-07T13:20:47;6.35;;;3.38;;
20375;SDS011;10347;51.828;6.466;2023-09-07T13:23:15;4.47;;;3.40;;
20375;SDS011;10347;51.828;6.466;2023-09-07T13:25:41;6.43;;;3.60;;
20375;SDS011;10347;51.828;6.466;2023-09-07T13:28:06;5.05;;;3.30;;
20375;SDS011;10347;51.828;6.466;2023-09-07T13:30:32;3.33;;;3.10;;
20375;SDS011;10347;51.828;6.466;2023-09-07T13:32:57;3.60;;;3.30;;
20375;SDS011;10347;51.828;6.466;2023-09-07T13:35:24;5.05;;;3.38;;
20375;SDS011;10347;51.828;6.466;2023-09-07T13:37:50;4.38;;;3.47;;
20375;SDS011;10347;51.828;6.466;2023-09-07T13:40:15;6.82;;;3.47;;
20375;SDS011;10347;51.828;6.466;2023-09-07T13:42:41;4.05;;;3.03;;
20375;SDS011;10347;51.828;6.466;2023-09-07T13:45:08;6.80;;;3.28;;
20375;SDS011;10347;51.828;6.466;2023-09-07T13:47:33;3.50;;;3.20;;
20375;SDS011;10347;51.828;6.466;2023-09-07T13:49:59;4.22;;;3.30;;
20375;SDS011;10347;51.828;6.466;2023-09-07T13:52:24;6.80;;;3.60;;
20375;SDS011;10347;51.828;6.466;2023-09-07T13:54:51;6.38;;;3.60;;
20375;SDS011;10347;51.828;6.466;2023-09-07T13:57:16;3.75;;;2.97;;
20375;SDS011;10347;51.828;6.466;2023-09-07T13:59:42;7.90;;;3.10;;
20375;SDS011;10347;51.828;6.466;2023-09-07T14:02:07;4.43;;;3.33;;
20375;SDS011;10347;51.828;6.466;2023-09-07T14:04:33;6.60;;;3.53;;
20375;SDS011;10347;51.828;6.466;2023-09-07T14:06:59;5.28;;;3.78;;
20375;SDS011;10347;51.828;6.466;2023-09-07T14:09:24;4.05;;;3.70;;
20375;SDS011;10347;51.828;6.466;2023-09-07T14:11:50;7.63;;;3.72;;
20375;SDS011;10347;51.828;6.466;2023-09-07T14:14:15;3.80;;;3.50;;
20375;SDS011;10347;51.828;6.466;2023-09-07T14:16:41;6.05;;;3.38;;
20375;SDS011;10347;51.828;6.466;2023-09-07T14:19:07;2.92;;;2.72;;
20375;SDS011;10347;51.828;6.466;2023-09-07T14:21:32;4.95;;;3.78;;
20375;SDS011;10347;51.828;6.466;2023-09-07T14:23:58;8.43;;;3.88;;
20375;SDS011;10347;51.828;6.466;2023-09-07T14:26:23;3.92;;;3.45;;
20375;SDS011;10347;51.828;6.466;2023-09-07T14:28:49;3.90;;;3.50;;
20375;SDS011;10347;51.828;6.466;2023-09-07T14:31:15;3.47;;;3.17;;
20375;SDS011;10347;51.828;6.466;2023-09-07T14:33:41;4.47;;;3.00;;
20375;SDS011;10347;51.828;6.466;2023-09-07T14:36:07;3.92;;;3.53;;
20375;SDS011;10347;51.828;6.466;2023-09-07T14:38:34;4.40;;;3.42;;
20375;SDS011;10347;51.828;6.466;2023-09-07T14:41:06;6.90;;;4.05;;
20375;SDS011;10347;51.828;6.466;2023-09-07T14:43:33;5.00;;;3.72;;